sensor_id;sensor_type;location;lat;lon;timestamp;P1;durP1;ratioP1;P2;durP2;ratioP2
65377;SDS011;51982;51.042;13.806;2023-12-28T00:01:04;6.63;;;2.67;;
65377;SDS011;51982;51.042;13.806;2023-12-28T00:03:29;5.07;;;2.50;;
65377;SDS011;51982;51.042;13.806;2023-12-28T00:05:54;5.30;;;2.10;;
65377;SDS011;51982;51.042;13.806;2023-12-28T00:08:19;5.93;;;2.38;;
65377;SDS011;51982;51.042;13.806;2023-12-28T00:10:45;5.20;;;2.00;;
65377;SDS011;51982;51.042;13.806;2023-12-28T00:13:10;3.83;;;2.00;;
65377;SDS011;51982;51.042;13.806;2023-12-28T00:15:35;4.45;;;2.00;;
65377;SDS011;51982;51.042;13.806;2023-12-28T00:18:00;5.97;;;2.35;;
65377;SDS011;51982;51.042;13.806;2023-12-28T00:20:25;5.00;;;2.15;;
65377;SDS011;51982;51.042;13.806;2023-12-28T00:22:51;4.38;;;2.40;;
65377;SDS011;51982;51.042;13.806;2023-12-28T00:25:16;7.97;;;2.40;;
65377;SDS011;51982;51.042;13.806;2023-12-28T00:27:41;3.47;;;1.90;;
65377;SDS011;51982;51.042;13.806;2023-12-28T00:30:06;5.47;;;2.23;;
65377;SDS011;51982;51.042;13.806;2023-12-28T00:32:32;4.35;;;2.00;;
65377;SDS011;51982;51.042;13.806;2023-12-28T00:34:57;7.00;;;2.33;;
65377;SDS011;51982;51.042;13.806;2023-12-28T00:37:22;4.97;;;2.00;;
65377;SDS011;51982;51.042;13.806;2023-12-28T00:39:48;3.40;;;2.10;;
65377;SDS011;51982;51.042;13.806;2023-12-28T00:42:14;7.18;;;2.03;;
65377;SDS011;51982;51.042;13.806;2023-12-28T00:44:40;5.18;;;2.40;;
65377;SDS011;51982;51.042;13.806;2023-12-28T00:47:06;4.20;;;1.75;;
65377;SDS011;51982;51.042;13.806;2023-12-28T00:49:31;5.07;;;1.92;;
65377;SDS011;51982;51.042;13.806;2023-12-28T00:51:57;6.10;;;1.98;;
65377;SDS011;51982;51.042;13.806;2023-12-28T00:54:22;4.07;;;1.90;;
65377;SDS011;51982;51.042;13.806;2023-12-28T00:56:47;5.60;;;2.30;;
65377;SDS011;51982;51.042;13.806;2023-12-28T00:59:12;7.33;;;2.37;;
65377;SDS011;51982;51.042;13.806;2023-12-28T01:01:37;8.00;;;2.23;;
65377;SDS011;51982;51.042;13.806;2023-12-28T01:04:03;5.85;;;2.40;;
65377;SDS011;51982;51.042;13.806;2023-12-28T01:06:28;3.72;;;2.05;;
65377;SDS011;51982;51.042;13.806;2023-12-28T01:08:54;3.85;;;2.08;;
65377;SDS011;51982;51.042;13.806;2023-12-28T01:11:20;5.60;;;2.10;;
65377;SDS011;51982;51.042;13.806;2023-12-28T01:13:45;8.25;;;2.15;;
65377;SDS011;51982;51.042;13.806;2023-12-28T01:16:14;4.78;;;2.03;;
65377;SDS011;51982;51.042;13.806;2023-12-28T01:18:39;5.68;;;2.17;;
65377;SDS011;51982;51.042;13.806;2023-12-28T01:21:05;5.45;;;2.45;;
65377;SDS011;51982;51.042;13.806;2023-12-28T01:23:30;5.85;;;2.33;;
65377;SDS011;51982;51.042;13.806;2023-12-28T01:25:56;6.38;;;2.38;;
65377;SDS011;51982;51.042;13.806;2023-12-28T01:28:21;5.85;;;2.42;;
65377;SDS011;51982;51.042;13.806;2023-12-28T01:30:46;4.82;;;1.80;;
65377;SDS011;51982;51.042;13.806;2023-12-28T01:33:12;4.87;;;2.30;;
65377;SDS011;51982;51.042;13.806;2023-12-28T01:35:37;4.67;;;2.37;;
65377;SDS011;51982;51.042;13.806;2023-12-28T01:38:02;6.90;;;2.50;;
65377;SDS011;51982;51.042;13.806;2023-12-28T01:40:28;5.25;;;2.15;;
65377;SDS011;51982;51.042;13.806;2023-12-28T01:42:53;5.80;;;2.90;;
65377;SDS011;51982;51.042;13.806;2023-12-28T01:45:19;8.40;;;2.95;;
65377;SDS011;51982;51.042;13.806;2023-12-28T01:47:44;4.47;;;2.10;;
65377;SDS011;51982;51.042;13.806;2023-12-28T01:50:10;5.47;;;2.38;;
65377;SDS011;51982;51.042;13.806;2023-12-28T01:52:36;4.15;;;2.28;;
65377;SDS011;51982;51.042;13.806;2023-12-28T01:55:02;7.20;;;2.30;;
65377;SDS011;51982;51.042;13.806;2023-12-28T01:57:28;3.70;;;2.00;;
65377;SDS011;51982;51.042;13.806;2023-12-28T01:59:54;4.05;;;2.30;;
65377;SDS011;51982;51.042;13.806;2023-12-28T02:02:19;3.00;;;1.90;;
65377;SDS011;51982;51.042;13.806;2023-12-28T02:04:47;3.22;;;2.05;;
65377;SDS011;51982;51.042;13.806;2023-12-28T02:07:12;4.57;;;2.10;;
65377;SDS011;51982;51.042;13.806;2023-12-28T02:09:38;5.70;;;2.30;;
65377;SDS011;51982;51.042;13.806;2023-12-28T02:12:03;8.68;;;2.40;;
65377;SDS011;51982;51.042;13.806;2023-12-28T02:14:29;5.68;;;2.38;;
65377;SDS011;51982;51.042;13.806;2023-12-28T02:16:56;4.93;;;2.22;;
65377;SDS011;51982;51.042;13.806;2023-12-28T02:19:32;4.65;;;2.20;;
65377;SDS011;51982;51.042;13.806;2023-12-28T02:22:05;6.15;;;2.22;;
65377;SDS011;51982;51.042;13.806;2023-12-28T02:24:32;6.35;;;2.28;;
65377;SDS011;51982;51.042;13.806;2023-12-28T02:26:57;3.20;;;2.03;;
65377;SDS011;51982;51.042;13.806;2023-12-28T02:29:23;5.25;;;2.15;;
65377;SDS011;51982;51.042;13.806;2023-12-28T02:31:53;3.47;;;1.90;;
65377;SDS011;51982;51.042;13.806;2023-12-28T02:34:27;4.28;;;2.08;;
65377;SDS011;51982;51.042;13.806;2023-12-28T02:36:57;5.22;;;2.13;;
65377;SDS011;51982;51.042;13.806;2023-12-28T02:39:24;4.30;;;2.35;;
65377;SDS011;51982;51.042;13.806;2023-12-28T02:41:51;5.78;;;2.10;;
65377;SDS011;51982;51.042;13.806;2023-12-28T02:44:16;3.63;;;2.13;;
65377;SDS011;51982;51.042;13.806;2023-12-28T02:46:43;4.80;;;2.33;;
65377;SDS011;51982;51.042;13.806;2023-12-28T02:49:08;6.35;;;2.10;;
65377;SDS011;51982;51.042;13.806;2023-12-28T02:51:35;8.60;;;1.83;;
65377;SDS011;51982;51.042;13.806;2023-12-28T02:54:00;5.57;;;2.10;;
65377;SDS011;51982;51.042;13.806;2023-12-28T02:56:26;3.20;;;1.83;;
65377;SDS011;51982;51.042;13.806;2023-12-28T02:58:51;5.03;;;2.00;;
65377;SDS011;51982;51.042;13.806;2023-12-28T03:01:16;2.80;;;1.60;;
65377;SDS011;51982;51.042;13.806;2023-12-28T03:03:41;3.45;;;1.90;;
65377;SDS011;51982;51.042;13.806;2023-12-28T03:06:06;5.25;;;2.20;;
65377;SDS011;51982;51.042;13.806;2023-12-28T03:08:32;4.90;;;2.07;;
65377;SDS011;51982;51.042;13.806;2023-12-28T03:10:57;5.60;;;2.00;;
65377;SDS011;51982;51.042;13.806;2023-12-28T03:13:22;2.97;;;1.80;;
65377;SDS011;51982;51.042;13.806;2023-12-28T03:15:48;4.03;;;2.00;;
65377;SDS011;51982;51.042;13.806;2023-12-28T03:18:13;3.22;;;1.85;;
65377;SDS011;51982;51.042;13.806;2023-12-28T03:20:38;5.32;;;1.77;;
65377;SDS011;51982;51.042;13.806;2023-12-28T03:23:03;2.73;;;1.30;;
65377;SDS011;51982;51.042;13.806;2023-12-28T03:25:29;3.97;;;1.63;;
65377;SDS011;51982;51.042;13.806;2023-12-28T03:27:54;4.40;;;1.67;;
65377;SDS011;51982;51.042;13.806;2023-12-28T03:30:20;2.90;;;1.60;;
65377;SDS011;51982;51.042;13.806;2023-12-28T03:32:45;2.55;;;1.33;;
65377;SDS011;51982;51.042;13.806;2023-12-28T03:35:10;2.73;;;1.57;;
65377;SDS011;51982;51.042;13.806;2023-12-28T03:37:35;3.03;;;1.42;;
65377;SDS011;51982;51.042;13.806;2023-12-28T03:40:01;5.10;;;1.30;;
65377;SDS011;51982;51.042;13.806;2023-12-28T03:42:26;3.15;;;1.65;;
65377;SDS011;51982;51.042;13.806;2023-12-28T03:44:51;1.77;;;1.33;;
65377;SDS011;51982;51.042;13.806;2023-12-28T03:47:16;3.40;;;1.70;;
65377;SDS011;51982;51.042;13.806;2023-12-28T03:49:42;2.00;;;1.30;;
65377;SDS011;51982;51.042;13.806;2023-12-28T03:52:07;2.40;;;1.37;;
65377;SDS011;51982;51.042;13.806;2023-12-28T03:54:32;3.17;;;1.27;;
65377;SDS011;51982;51.042;13.806;2023-12-28T03:56:57;2.80;;;1.50;;
65377;SDS011;51982;51.042;13.806;2023-12-28T03:59:22;3.05;;;1.60;;
65377;SDS011;51982;51.042;13.806;2023-12-28T04:01:48;3.28;;;1.55;;
65377;SDS011;51982;51.042;13.806;2023-12-28T04:04:13;6.40;;;2.00;;
65377;SDS011;51982;51.042;13.806;2023-12-28T04:06:38;4.32;;;1.92;;
65377;SDS011;51982;51.042;13.806;2023-12-28T04:09:03;4.75;;;2.00;;
65377;SDS011;51982;51.042;13.806;2023-12-28T04:11:29;4.00;;;2.00;;
65377;SDS011;51982;51.042;13.806;2023-12-28T04:13:54;4.07;;;1.90;;
65377;SDS011;51982;51.042;13.806;2023-12-28T04:16:20;3.00;;;1.52;;
65377;SDS011;51982;51.042;13.806;2023-12-28T04:18:45;3.58;;;1.70;;
65377;SDS011;51982;51.042;13.806;2023-12-28T04:21:11;3.10;;;1.80;;
65377;SDS011;51982;51.042;13.806;2023-12-28T04:23:37;5.22;;;2.00;;
65377;SDS011;51982;51.042;13.806;2023-12-28T04:26:04;3.05;;;1.83;;
65377;SDS011;51982;51.042;13.806;2023-12-28T04:28:29;3.63;;;1.70;;
65377;SDS011;51982;51.042;13.806;2023-12-28T04:30:54;5.50;;;2.00;;
65377;SDS011;51982;51.042;13.806;2023-12-28T04:33:20;3.55;;;1.83;;
65377;SDS011;51982;51.042;13.806;2023-12-28T04:35:45;5.20;;;2.10;;
65377;SDS011;51982;51.042;13.806;2023-12-28T04:38:10;3.97;;;1.90;;
65377;SDS011;51982;51.042;13.806;2023-12-28T04:40:36;5.87;;;1.73;;
65377;SDS011;51982;51.042;13.806;2023-12-28T04:43:01;3.05;;;1.83;;
65377;SDS011;51982;51.042;13.806;2023-12-28T04:45:26;3.53;;;1.65;;
65377;SDS011;51982;51.042;13.806;2023-12-28T04:47:52;3.83;;;1.63;;
65377;SDS011;51982;51.042;13.806;2023-12-28T04:50:17;2.67;;;1.40;;
65377;SDS011;51982;51.042;13.806;2023-12-28T04:52:43;4.47;;;1.93;;
65377;SDS011;51982;51.042;13.806;2023-12-28T04:55:08;3.37;;;1.60;;
65377;SDS011;51982;51.042;13.806;2023-12-28T04:57:33;2.40;;;1.40;;
65377;SDS011;51982;51.042;13.806;2023-12-28T04:59:58;2.87;;;1.40;;
65377;SDS011;51982;51.042;13.806;2023-12-28T05:02:24;2.13;;;1.30;;
65377;SDS011;51982;51.042;13.806;2023-12-28T05:04:49;2.70;;;1.47;;
65377;SDS011;51982;51.042;13.806;2023-12-28T05:07:14;5.60;;;1.40;;
65377;SDS011;51982;51.042;13.806;2023-12-28T05:09:39;4.07;;;1.70;;
65377;SDS011;51982;51.042;13.806;2023-12-28T05:12:04;2.17;;;1.33;;
65377;SDS011;51982;51.042;13.806;2023-12-28T05:14:30;2.88;;;1.50;;
65377;SDS011;51982;51.042;13.806;2023-12-28T05:16:55;3.33;;;1.77;;
65377;SDS011;51982;51.042;13.806;2023-12-28T05:19:20;3.40;;;2.00;;
65377;SDS011;51982;51.042;13.806;2023-12-28T05:21:46;2.77;;;1.50;;
65377;SDS011;51982;51.042;13.806;2023-12-28T05:24:12;2.72;;;1.35;;
65377;SDS011;51982;51.042;13.806;2023-12-28T05:26:37;2.70;;;1.50;;
65377;SDS011;51982;51.042;13.806;2023-12-28T05:29:02;3.17;;;1.35;;
65377;SDS011;51982;51.042;13.806;2023-12-28T05:31:28;3.92;;;1.50;;
65377;SDS011;51982;51.042;13.806;2023-12-28T05:33:53;2.70;;;1.40;;
65377;SDS011;51982;51.042;13.806;2023-12-28T05:36:18;2.85;;;1.33;;
65377;SDS011;51982;51.042;13.806;2023-12-28T05:38:44;5.40;;;1.63;;
65377;SDS011;51982;51.042;13.806;2023-12-28T05:41:09;4.13;;;1.80;;
65377;SDS011;51982;51.042;13.806;2023-12-28T05:43:34;3.75;;;1.50;;
65377;SDS011;51982;51.042;13.806;2023-12-28T05:46:00;7.72;;;1.77;;
65377;SDS011;51982;51.042;13.806;2023-12-28T05:48:25;3.33;;;1.43;;
65377;SDS011;51982;51.042;13.806;2023-12-28T05:50:51;4.20;;;1.60;;
65377;SDS011;51982;51.042;13.806;2023-12-28T05:53:16;6.00;;;1.45;;
65377;SDS011;51982;51.042;13.806;2023-12-28T05:55:41;2.38;;;1.40;;
65377;SDS011;51982;51.042;13.806;2023-12-28T05:58:06;3.83;;;1.90;;
65377;SDS011;51982;51.042;13.806;2023-12-28T06:00:31;3.20;;;1.60;;
65377;SDS011;51982;51.042;13.806;2023-12-28T06:02:57;2.53;;;1.60;;
65377;SDS011;51982;51.042;13.806;2023-12-28T06:05:22;6.75;;;1.60;;
65377;SDS011;51982;51.042;13.806;2023-12-28T06:07:47;2.97;;;1.45;;
65377;SDS011;51982;51.042;13.806;2023-12-28T06:10:12;2.88;;;1.80;;
65377;SDS011;51982;51.042;13.806;2023-12-28T06:12:38;5.35;;;1.75;;
65377;SDS011;51982;51.042;13.806;2023-12-28T06:15:03;2.70;;;1.63;;
65377;SDS011;51982;51.042;13.806;2023-12-28T06:17:28;4.15;;;1.60;;
65377;SDS011;51982;51.042;13.806;2023-12-28T06:19:54;3.50;;;1.90;;
65377;SDS011;51982;51.042;13.806;2023-12-28T06:22:19;3.00;;;1.75;;
65377;SDS011;51982;51.042;13.806;2023-12-28T06:24:44;3.67;;;1.70;;
65377;SDS011;51982;51.042;13.806;2023-12-28T06:27:10;5.55;;;1.90;;
65377;SDS011;51982;51.042;13.806;2023-12-28T06:29:35;5.03;;;1.70;;
65377;SDS011;51982;51.042;13.806;2023-12-28T06:32:01;3.10;;;2.10;;
65377;SDS011;51982;51.042;13.806;2023-12-28T06:34:26;3.20;;;1.85;;
65377;SDS011;51982;51.042;13.806;2023-12-28T06:36:51;7.53;;;1.70;;
65377;SDS011;51982;51.042;13.806;2023-12-28T06:39:17;3.55;;;1.52;;
65377;SDS011;51982;51.042;13.806;2023-12-28T06:41:42;4.97;;;2.05;;
65377;SDS011;51982;51.042;13.806;2023-12-28T06:44:07;4.47;;;2.15;;
65377;SDS011;51982;51.042;13.806;2023-12-28T06:46:33;5.55;;;2.30;;
65377;SDS011;51982;51.042;13.806;2023-12-28T06:48:58;3.42;;;2.10;;
65377;SDS011;51982;51.042;13.806;2023-12-28T06:51:24;3.65;;;1.80;;
65377;SDS011;51982;51.042;13.806;2023-12-28T06:53:49;3.75;;;2.10;;
65377;SDS011;51982;51.042;13.806;2023-12-28T06:56:14;11.40;;;2.10;;
65377;SDS011;51982;51.042;13.806;2023-12-28T06:58:40;4.20;;;1.98;;
65377;SDS011;51982;51.042;13.806;2023-12-28T07:01:06;4.32;;;2.05;;
65377;SDS011;51982;51.042;13.806;2023-12-28T07:03:31;4.30;;;1.60;;
65377;SDS011;51982;51.042;13.806;2023-12-28T07:05:58;4.68;;;2.00;;
65377;SDS011;51982;51.042;13.806;2023-12-28T07:08:23;3.47;;;1.83;;
65377;SDS011;51982;51.042;13.806;2023-12-28T07:10:49;3.55;;;1.77;;
65377;SDS011;51982;51.042;13.806;2023-12-28T07:13:14;4.87;;;1.70;;
65377;SDS011;51982;51.042;13.806;2023-12-28T07:15:39;3.17;;;1.90;;
65377;SDS011;51982;51.042;13.806;2023-12-28T07:18:04;3.03;;;1.80;;
65377;SDS011;51982;51.042;13.806;2023-12-28T07:20:30;4.78;;;2.10;;
65377;SDS011;51982;51.042;13.806;2023-12-28T07:22:55;5.30;;;1.93;;
65377;SDS011;51982;51.042;13.806;2023-12-28T07:25:20;3.47;;;1.55;;
65377;SDS011;51982;51.042;13.806;2023-12-28T07:27:46;2.90;;;1.73;;
65377;SDS011;51982;51.042;13.806;2023-12-28T07:30:11;5.82;;;1.77;;
65377;SDS011;51982;51.042;13.806;2023-12-28T07:32:37;3.03;;;1.90;;
65377;SDS011;51982;51.042;13.806;2023-12-28T07:35:02;4.68;;;2.00;;
65377;SDS011;51982;51.042;13.806;2023-12-28T07:37:27;2.85;;;1.65;;
65377;SDS011;51982;51.042;13.806;2023-12-28T07:39:53;3.75;;;1.80;;
65377;SDS011;51982;51.042;13.806;2023-12-28T07:42:18;3.25;;;1.60;;
65377;SDS011;51982;51.042;13.806;2023-12-28T07:44:43;4.50;;;1.60;;
65377;SDS011;51982;51.042;13.806;2023-12-28T07:47:09;5.03;;;1.75;;
65377;SDS011;51982;51.042;13.806;2023-12-28T07:49:34;4.80;;;1.35;;
65377;SDS011;51982;51.042;13.806;2023-12-28T07:51:59;2.73;;;1.40;;
65377;SDS011;51982;51.042;13.806;2023-12-28T07:54:24;2.28;;;1.30;;
65377;SDS011;51982;51.042;13.806;2023-12-28T07:56:49;2.72;;;1.30;;
65377;SDS011;51982;51.042;13.806;2023-12-28T07:59:15;2.30;;;1.10;;
65377;SDS011;51982;51.042;13.806;2023-12-28T08:01:40;3.90;;;1.30;;
65377;SDS011;51982;51.042;13.806;2023-12-28T08:04:05;2.28;;;1.10;;
65377;SDS011;51982;51.042;13.806;2023-12-28T08:06:30;1.70;;;1.10;;
65377;SDS011;51982;51.042;13.806;2023-12-28T08:08:57;3.67;;;1.23;;
65377;SDS011;51982;51.042;13.806;2023-12-28T08:11:25;2.20;;;1.25;;
65377;SDS011;51982;51.042;13.806;2023-12-28T08:13:51;1.23;;;0.95;;
65377;SDS011;51982;51.042;13.806;2023-12-28T08:16:16;2.07;;;1.13;;
65377;SDS011;51982;51.042;13.806;2023-12-28T08:18:41;2.17;;;1.30;;
65377;SDS011;51982;51.042;13.806;2023-12-28T08:21:06;2.03;;;1.13;;
65377;SDS011;51982;51.042;13.806;2023-12-28T08:23:32;2.37;;;1.23;;
65377;SDS011;51982;51.042;13.806;2023-12-28T08:25:57;2.88;;;1.10;;
65377;SDS011;51982;51.042;13.806;2023-12-28T08:28:22;5.07;;;1.23;;
65377;SDS011;51982;51.042;13.806;2023-12-28T08:30:48;2.42;;;1.13;;
65377;SDS011;51982;51.042;13.806;2023-12-28T08:33:13;2.63;;;1.13;;
65377;SDS011;51982;51.042;13.806;2023-12-28T08:35:39;2.95;;;1.30;;
65377;SDS011;51982;51.042;13.806;2023-12-28T08:38:04;2.17;;;1.20;;
65377;SDS011;51982;51.042;13.806;2023-12-28T08:40:31;4.22;;;2.15;;
65377;SDS011;51982;51.042;13.806;2023-12-28T08:42:56;4.35;;;2.40;;
65377;SDS011;51982;51.042;13.806;2023-12-28T08:45:21;3.00;;;1.30;;
65377;SDS011;51982;51.042;13.806;2023-12-28T08:47:47;3.55;;;1.30;;
65377;SDS011;51982;51.042;13.806;2023-12-28T08:50:13;1.73;;;1.17;;
65377;SDS011;51982;51.042;13.806;2023-12-28T08:52:38;3.17;;;1.52;;
65377;SDS011;51982;51.042;13.806;2023-12-28T08:55:04;1.47;;;1.17;;
65377;SDS011;51982;51.042;13.806;2023-12-28T08:57:30;2.35;;;1.20;;
65377;SDS011;51982;51.042;13.806;2023-12-28T08:59:55;1.95;;;1.30;;
65377;SDS011;51982;51.042;13.806;2023-12-28T09:02:20;3.17;;;1.27;;
65377;SDS011;51982;51.042;13.806;2023-12-28T09:04:45;2.67;;;1.53;;
65377;SDS011;51982;51.042;13.806;2023-12-28T09:07:11;4.47;;;1.80;;
65377;SDS011;51982;51.042;13.806;2023-12-28T09:09:36;6.05;;;2.13;;
65377;SDS011;51982;51.042;13.806;2023-12-28T09:12:01;3.40;;;1.70;;
65377;SDS011;51982;51.042;13.806;2023-12-28T09:14:27;3.17;;;1.63;;
65377;SDS011;51982;51.042;13.806;2023-12-28T09:16:52;3.63;;;1.97;;
65377;SDS011;51982;51.042;13.806;2023-12-28T09:19:17;3.30;;;1.97;;
65377;SDS011;51982;51.042;13.806;2023-12-28T09:21:42;5.72;;;1.98;;
65377;SDS011;51982;51.042;13.806;2023-12-28T09:24:07;3.03;;;1.48;;
65377;SDS011;51982;51.042;13.806;2023-12-28T09:26:33;2.70;;;1.57;;
65377;SDS011;51982;51.042;13.806;2023-12-28T09:28:58;1.90;;;1.30;;
65377;SDS011;51982;51.042;13.806;2023-12-28T09:31:24;2.25;;;1.30;;
65377;SDS011;51982;51.042;13.806;2023-12-28T09:33:49;2.10;;;1.20;;
65377;SDS011;51982;51.042;13.806;2023-12-28T09:36:14;3.03;;;1.45;;
65377;SDS011;51982;51.042;13.806;2023-12-28T09:38:40;2.72;;;1.17;;
65377;SDS011;51982;51.042;13.806;2023-12-28T09:41:11;3.38;;;1.30;;
65377;SDS011;51982;51.042;13.806;2023-12-28T09:43:41;2.90;;;1.42;;
65377;SDS011;51982;51.042;13.806;2023-12-28T09:46:18;3.70;;;1.00;;
65377;SDS011;51982;51.042;13.806;2023-12-28T09:48:43;2.30;;;1.20;;
65377;SDS011;51982;51.042;13.806;2023-12-28T09:51:09;2.17;;;1.08;;
65377;SDS011;51982;51.042;13.806;2023-12-28T09:53:35;2.75;;;0.98;;
65377;SDS011;51982;51.042;13.806;2023-12-28T09:56:01;1.27;;;0.90;;
65377;SDS011;51982;51.042;13.806;2023-12-28T09:58:27;1.52;;;1.02;;
65377;SDS011;51982;51.042;13.806;2023-12-28T10:00:54;1.73;;;0.90;;
65377;SDS011;51982;51.042;13.806;2023-12-28T10:03:20;2.60;;;1.20;;
65377;SDS011;51982;51.042;13.806;2023-12-28T10:05:45;2.10;;;1.20;;
65377;SDS011;51982;51.042;13.806;2023-12-28T10:08:11;2.03;;;1.23;;
65377;SDS011;51982;51.042;13.806;2023-12-28T10:10:38;3.42;;;1.55;;
65377;SDS011;51982;51.042;13.806;2023-12-28T10:13:03;1.85;;;1.20;;
65377;SDS011;51982;51.042;13.806;2023-12-28T10:15:30;3.35;;;1.13;;
65377;SDS011;51982;51.042;13.806;2023-12-28T10:17:56;2.25;;;1.23;;
65377;SDS011;51982;51.042;13.806;2023-12-28T10:20:21;3.13;;;1.27;;
65377;SDS011;51982;51.042;13.806;2023-12-28T10:22:46;2.50;;;1.60;;
65377;SDS011;51982;51.042;13.806;2023-12-28T10:25:12;2.30;;;1.10;;
65377;SDS011;51982;51.042;13.806;2023-12-28T10:27:38;1.63;;;1.10;;
65377;SDS011;51982;51.042;13.806;2023-12-28T10:30:05;1.85;;;1.30;;
65377;SDS011;51982;51.042;13.806;2023-12-28T10:32:31;2.05;;;1.30;;
65377;SDS011;51982;51.042;13.806;2023-12-28T10:34:57;2.57;;;1.23;;
65377;SDS011;51982;51.042;13.806;2023-12-28T10:37:22;3.57;;;1.70;;
65377;SDS011;51982;51.042;13.806;2023-12-28T10:39:51;4.22;;;1.40;;
65377;SDS011;51982;51.042;13.806;2023-12-28T10:42:28;1.98;;;1.30;;
65377;SDS011;51982;51.042;13.806;2023-12-28T10:44:59;2.95;;;1.40;;
65377;SDS011;51982;51.042;13.806;2023-12-28T10:47:29;6.93;;;1.58;;
65377;SDS011;51982;51.042;13.806;2023-12-28T10:49:57;3.72;;;1.30;;
65377;SDS011;51982;51.042;13.806;2023-12-28T10:52:27;2.35;;;1.30;;
65377;SDS011;51982;51.042;13.806;2023-12-28T10:57:59;74.22;;;17.38;;
65377;SDS011;51982;51.042;13.806;2023-12-28T11:00:36;34.13;;;11.68;;
65377;SDS011;51982;51.042;13.806;2023-12-28T11:03:08;28.70;;;11.05;;
65377;SDS011;51982;51.042;13.806;2023-12-28T11:05:35;16.40;;;6.28;;
65377;SDS011;51982;51.042;13.806;2023-12-28T11:08:02;34.85;;;9.88;;
65377;SDS011;51982;51.042;13.806;2023-12-28T11:10:29;39.33;;;11.63;;
65377;SDS011;51982;51.042;13.806;2023-12-28T11:12:56;19.10;;;6.50;;
65377;SDS011;51982;51.042;13.806;2023-12-28T11:15:22;19.52;;;7.70;;
65377;SDS011;51982;51.042;13.806;2023-12-28T11:17:48;9.52;;;4.03;;
65377;SDS011;51982;51.042;13.806;2023-12-28T11:20:14;28.58;;;10.85;;
65377;SDS011;51982;51.042;13.806;2023-12-28T11:22:40;20.92;;;7.70;;
65377;SDS011;51982;51.042;13.806;2023-12-28T11:25:06;15.00;;;5.75;;
65377;SDS011;51982;51.042;13.806;2023-12-28T11:27:39;14.05;;;4.88;;
65377;SDS011;51982;51.042;13.806;2023-12-28T11:30:06;16.58;;;7.15;;
65377;SDS011;51982;51.042;13.806;2023-12-28T11:32:38;10.05;;;4.70;;
65377;SDS011;51982;51.042;13.806;2023-12-28T11:35:07;2.92;;;1.80;;
65377;SDS011;51982;51.042;13.806;2023-12-28T11:37:35;4.80;;;2.47;;
65377;SDS011;51982;51.042;13.806;2023-12-28T11:40:10;7.13;;;3.30;;
65377;SDS011;51982;51.042;13.806;2023-12-28T11:42:46;2.85;;;1.80;;
65377;SDS011;51982;51.042;13.806;2023-12-28T11:45:12;9.77;;;3.88;;
65377;SDS011;51982;51.042;13.806;2023-12-28T11:47:37;4.90;;;2.13;;
65377;SDS011;51982;51.042;13.806;2023-12-28T11:50:06;2.90;;;1.53;;
65377;SDS011;51982;51.042;13.806;2023-12-28T11:52:32;2.85;;;1.70;;
65377;SDS011;51982;51.042;13.806;2023-12-28T11:54:58;5.95;;;2.63;;
65377;SDS011;51982;51.042;13.806;2023-12-28T11:57:24;3.30;;;1.95;;
65377;SDS011;51982;51.042;13.806;2023-12-28T12:00:00;3.03;;;1.92;;
65377;SDS011;51982;51.042;13.806;2023-12-28T12:02:27;4.25;;;2.55;;
65377;SDS011;51982;51.042;13.806;2023-12-28T12:04:53;3.35;;;1.95;;
65377;SDS011;51982;51.042;13.806;2023-12-28T12:07:19;2.35;;;1.40;;
65377;SDS011;51982;51.042;13.806;2023-12-28T12:09:44;2.42;;;1.30;;
65377;SDS011;51982;51.042;13.806;2023-12-28T12:12:10;1.98;;;1.23;;
65377;SDS011;51982;51.042;13.806;2023-12-28T12:14:35;2.03;;;1.30;;
65377;SDS011;51982;51.042;13.806;2023-12-28T12:17:01;2.88;;;1.30;;
65377;SDS011;51982;51.042;13.806;2023-12-28T12:19:27;3.55;;;1.60;;
65377;SDS011;51982;51.042;13.806;2023-12-28T12:21:53;2.25;;;1.50;;
65377;SDS011;51982;51.042;13.806;2023-12-28T12:24:19;2.05;;;1.50;;
65377;SDS011;51982;51.042;13.806;2023-12-28T12:26:48;4.82;;;1.63;;
65377;SDS011;51982;51.042;13.806;2023-12-28T12:29:14;2.50;;;1.48;;
65377;SDS011;51982;51.042;13.806;2023-12-28T12:31:40;2.15;;;1.30;;
65377;SDS011;51982;51.042;13.806;2023-12-28T12:34:07;2.75;;;1.40;;
65377;SDS011;51982;51.042;13.806;2023-12-28T12:36:34;5.25;;;1.48;;
65377;SDS011;51982;51.042;13.806;2023-12-28T12:38:59;2.45;;;1.30;;
65377;SDS011;51982;51.042;13.806;2023-12-28T12:41:25;2.83;;;1.30;;
65377;SDS011;51982;51.042;13.806;2023-12-28T12:43:51;1.77;;;1.27;;
65377;SDS011;51982;51.042;13.806;2023-12-28T12:46:17;3.65;;;1.15;;
65377;SDS011;51982;51.042;13.806;2023-12-28T12:49:00;1.33;;;1.05;;
65377;SDS011;51982;51.042;13.806;2023-12-28T12:52:02;3.00;;;1.33;;
65377;SDS011;51982;51.042;13.806;2023-12-28T12:54:38;2.72;;;1.10;;
65377;SDS011;51982;51.042;13.806;2023-12-28T12:57:44;1.30;;;1.05;;
65377;SDS011;51982;51.042;13.806;2023-12-28T13:00:10;1.90;;;1.10;;
65377;SDS011;51982;51.042;13.806;2023-12-28T13:02:36;4.72;;;1.10;;
65377;SDS011;51982;51.042;13.806;2023-12-28T13:05:02;2.17;;;0.88;;
65377;SDS011;51982;51.042;13.806;2023-12-28T13:07:31;2.35;;;1.10;;
65377;SDS011;51982;51.042;13.806;2023-12-28T13:09:57;1.40;;;1.00;;
65377;SDS011;51982;51.042;13.806;2023-12-28T13:12:22;2.55;;;1.10;;
65377;SDS011;51982;51.042;13.806;2023-12-28T13:14:51;1.85;;;1.30;;
65377;SDS011;51982;51.042;13.806;2023-12-28T13:17:22;2.45;;;1.00;;
65377;SDS011;51982;51.042;13.806;2023-12-28T13:19:47;1.98;;;1.20;;
65377;SDS011;51982;51.042;13.806;2023-12-28T13:22:13;1.90;;;1.00;;
65377;SDS011;51982;51.042;13.806;2023-12-28T13:24:38;1.25;;;1.00;;
65377;SDS011;51982;51.042;13.806;2023-12-28T13:27:04;1.50;;;1.08;;
65377;SDS011;51982;51.042;13.806;2023-12-28T13:29:29;1.67;;;1.10;;
65377;SDS011;51982;51.042;13.806;2023-12-28T13:31:55;1.80;;;1.00;;
65377;SDS011;51982;51.042;13.806;2023-12-28T13:34:20;1.70;;;1.02;;
65377;SDS011;51982;51.042;13.806;2023-12-28T13:36:55;1.30;;;0.98;;
65377;SDS011;51982;51.042;13.806;2023-12-28T13:39:28;1.60;;;1.00;;
65377;SDS011;51982;51.042;13.806;2023-12-28T13:42:06;1.35;;;0.95;;
65377;SDS011;51982;51.042;13.806;2023-12-28T13:44:34;2.65;;;1.00;;
65377;SDS011;51982;51.042;13.806;2023-12-28T13:47:10;2.78;;;1.17;;
65377;SDS011;51982;51.042;13.806;2023-12-28T13:49:49;4.85;;;1.25;;
65377;SDS011;51982;51.042;13.806;2023-12-28T13:52:16;1.95;;;1.13;;
65377;SDS011;51982;51.042;13.806;2023-12-28T13:54:45;2.15;;;1.25;;
65377;SDS011;51982;51.042;13.806;2023-12-28T13:57:13;1.20;;;0.95;;
65377;SDS011;51982;51.042;13.806;2023-12-28T13:59:46;3.25;;;1.30;;
65377;SDS011;51982;51.042;13.806;2023-12-28T14:02:11;2.28;;;1.00;;
65377;SDS011;51982;51.042;13.806;2023-12-28T14:04:36;4.28;;;1.60;;
65377;SDS011;51982;51.042;13.806;2023-12-28T14:07:01;5.70;;;1.30;;
65377;SDS011;51982;51.042;13.806;2023-12-28T14:09:28;1.30;;;1.00;;
65377;SDS011;51982;51.042;13.806;2023-12-28T14:11:56;1.95;;;1.10;;
65377;SDS011;51982;51.042;13.806;2023-12-28T14:17:32;2.42;;;1.10;;
65377;SDS011;51982;51.042;13.806;2023-12-28T14:20:13;2.30;;;1.35;;
65377;SDS011;51982;51.042;13.806;2023-12-28T14:22:46;1.67;;;1.23;;
65377;SDS011;51982;51.042;13.806;2023-12-28T14:25:27;2.70;;;1.10;;
65377;SDS011;51982;51.042;13.806;2023-12-28T14:28:02;2.05;;;1.27;;
65377;SDS011;51982;51.042;13.806;2023-12-28T14:30:28;1.55;;;1.00;;
65377;SDS011;51982;51.042;13.806;2023-12-28T14:32:57;1.52;;;1.02;;
65377;SDS011;51982;51.042;13.806;2023-12-28T14:35:22;4.20;;;1.20;;